createdAt,value
2022-10-14T00:00:43.408Z,24.58
2022-10-14T00:03:10.058Z,34.58
2022-10-14T00:05:40.115Z,31.52
2022-10-14T00:08:08.926Z,27.17
2022-10-14T00:10:39.685Z,24.13
2022-10-14T00:13:06.622Z,27.33
2022-10-14T00:15:40.658Z,27.75
2022-10-14T00:18:09.466Z,25.88
2022-10-14T00:20:36.390Z,30.25
2022-10-14T00:23:03.212Z,28.13
2022-10-14T00:25:30.127Z,26.65
2022-10-14T00:27:56.787Z,28.48
2022-10-14T00:30:23.463Z,29.92
2022-10-14T00:32:49.995Z,29.65
2022-10-14T00:35:16.646Z,28.88
2022-10-14T00:37:43.231Z,29.20
2022-10-14T00:40:10.408Z,27.38
2022-10-14T00:42:36.917Z,23.85
2022-10-14T00:45:12.353Z,30.48
2022-10-14T00:47:39.348Z,24.80
2022-10-14T00:50:09.463Z,26.25
2022-10-14T00:52:36.158Z,26.80
2022-10-14T00:55:07.017Z,29.60
2022-10-14T00:57:35.408Z,23.10
2022-10-14T01:00:08.744Z,31.13
2022-10-14T01:02:35.813Z,26.92
2022-10-14T01:05:03.403Z,27.63
2022-10-14T01:07:32.937Z,30.27
2022-10-14T01:10:09.660Z,29.88
2022-10-14T01:12:57.672Z,26.10
2022-10-14T01:16:09.370Z,24.95
2022-10-14T01:19:05.929Z,30.73
2022-10-14T01:21:40.177Z,28.58
2022-10-14T01:24:26.337Z,25.27
2022-10-14T01:27:15.565Z,24.08
2022-10-14T01:30:10.285Z,28.95
2022-10-14T01:32:48.575Z,22.85
2022-10-14T01:35:31.163Z,25.00
2022-10-14T01:38:06.742Z,26.73
2022-10-14T01:40:37.536Z,33.58
2022-10-14T01:43:04.900Z,26.55
2022-10-14T01:45:33.972Z,24.80
2022-10-14T01:48:01.858Z,29.73
2022-10-14T01:50:29.193Z,30.88
2022-10-14T01:53:04.321Z,29.52
2022-10-14T01:55:35.571Z,28.98
2022-10-14T01:58:02.634Z,28.98
2022-10-14T02:00:29.461Z,29.38
2022-10-14T02:03:00.979Z,28.10
2022-10-14T02:05:27.425Z,29.30
2022-10-14T02:08:03.110Z,27.38
2022-10-14T02:10:40.858Z,27.13
2022-10-14T02:13:26.835Z,26.77
2022-10-14T02:16:19.821Z,29.00
2022-10-14T02:19:02.467Z,25.10
2022-10-14T02:21:35.502Z,23.13
2022-10-14T02:24:07.015Z,27.88
2022-10-14T02:26:34.430Z,28.27
2022-10-14T02:29:01.861Z,28.02
2022-10-14T02:31:28.542Z,23.83
2022-10-14T02:33:58.822Z,28.80
2022-10-14T02:36:26.415Z,27.65
2022-10-14T02:38:55.175Z,25.15
2022-10-14T02:41:23.140Z,29.65
2022-10-14T02:43:49.997Z,26.00
2022-10-14T02:46:20.238Z,27.13
2022-10-14T02:48:46.876Z,26.65
2022-10-14T02:51:13.441Z,30.52
2022-10-14T02:53:40.028Z,30.85
2022-10-14T02:56:07.242Z,23.98
2022-10-14T02:58:34.327Z,34.03
2022-10-14T03:01:00.858Z,25.20
2022-10-14T03:03:28.348Z,28.90
2022-10-14T03:05:55.138Z,22.70
2022-10-14T03:08:21.782Z,29.20
2022-10-14T03:10:48.572Z,25.38
2022-10-14T03:13:16.071Z,28.55
2022-10-14T03:15:49.452Z,23.65
2022-10-14T03:18:18.058Z,31.48
2022-10-14T03:20:47.657Z,28.05
2022-10-14T03:23:22.599Z,29.80
2022-10-14T03:25:52.689Z,22.70
2022-10-14T03:28:26.465Z,27.38
2022-10-14T03:31:04.217Z,26.25
2022-10-14T03:33:44.398Z,26.92
2022-10-14T03:36:13.077Z,27.02
2022-10-14T03:38:49.928Z,26.27
2022-10-14T03:41:29.954Z,24.52
2022-10-14T03:43:56.849Z,23.83
2022-10-14T03:46:23.501Z,27.80
2022-10-14T03:48:51.204Z,28.30
2022-10-14T03:51:18.383Z,21.05
2022-10-14T03:53:46.043Z,26.20
2022-10-14T03:56:17.392Z,28.08
2022-10-14T03:58:47.489Z,28.88
2022-10-14T04:01:14.803Z,26.95
2022-10-14T04:04:13.826Z,31.48
2022-10-14T04:06:40.910Z,24.35
2022-10-14T04:09:08.545Z,21.38
2022-10-14T04:11:38.991Z,28.70
2022-10-14T04:14:09.742Z,25.73
2022-10-14T04:16:49.527Z,29.80
2022-10-14T04:19:17.409Z,28.20
2022-10-14T04:21:44.619Z,25.60
2022-10-14T04:24:11.548Z,24.05
2022-10-14T04:26:52.123Z,25.58
2022-10-14T04:29:41.997Z,20.75
2022-10-14T04:32:15.761Z,22.58
2022-10-14T04:34:42.692Z,21.95
2022-10-14T04:37:12.543Z,20.55
2022-10-14T04:39:57.825Z,23.60
2022-10-14T04:42:26.242Z,25.33
2022-10-14T04:44:58.328Z,25.10
2022-10-14T04:47:37.823Z,24.38
2022-10-14T04:50:04.837Z,27.13
2022-10-14T04:52:32.592Z,25.60
2022-10-14T04:55:05.922Z,21.30
2022-10-14T04:57:36.648Z,22.88
2022-10-14T05:00:04.842Z,23.45
2022-10-14T05:02:50.140Z,23.45
2022-10-14T05:05:16.968Z,19.90
2022-10-14T05:07:46.858Z,24.27
2022-10-14T05:10:22.143Z,24.98
2022-10-14T05:12:51.310Z,24.15
2022-10-14T05:15:19.572Z,21.75
2022-10-14T05:18:11.505Z,20.67
2022-10-14T05:20:59.424Z,24.85
2022-10-14T05:23:36.844Z,20.48
2022-10-14T05:26:03.688Z,23.98
2022-10-14T05:28:31.026Z,19.88
2022-10-14T05:30:57.808Z,25.75
2022-10-14T05:33:24.389Z,23.08
2022-10-14T05:35:58.932Z,19.40
2022-10-14T05:38:31.800Z,22.98
2022-10-14T05:40:58.538Z,20.40
2022-10-14T05:43:30.966Z,22.55
2022-10-14T05:46:00.445Z,19.80
2022-10-14T05:48:29.338Z,20.00
2022-10-14T05:51:01.315Z,22.02
2022-10-14T05:53:28.830Z,21.05
2022-10-14T05:56:10.919Z,22.17
2022-10-14T05:58:39.933Z,23.20
2022-10-14T06:01:09.731Z,19.30
2022-10-14T06:03:39.521Z,16.98
2022-10-14T06:06:07.478Z,18.60
2022-10-14T06:08:33.979Z,24.02
2022-10-14T06:11:03.266Z,22.67
2022-10-14T06:13:30.041Z,19.23
2022-10-14T06:16:05.982Z,21.67
2022-10-14T06:18:33.267Z,22.00
2022-10-14T06:21:00.323Z,16.83
2022-10-14T06:23:27.294Z,19.90
2022-10-14T06:25:53.835Z,18.55
2022-10-14T06:28:20.453Z,22.75
2022-10-14T06:30:54.007Z,17.70
2022-10-14T06:33:21.361Z,17.25
2022-10-14T06:35:47.949Z,21.92
2022-10-14T06:38:15.086Z,21.73
2022-10-14T06:40:41.647Z,23.35
2022-10-14T06:43:08.235Z,21.00
2022-10-14T06:45:34.819Z,19.50
2022-10-14T06:48:01.535Z,20.17
2022-10-14T06:50:28.044Z,17.15
2022-10-14T06:52:54.718Z,17.60
2022-10-14T06:55:21.304Z,21.35
2022-10-14T06:57:47.811Z,19.75
2022-10-14T07:00:14.782Z,20.40
2022-10-14T07:02:41.512Z,15.27
2022-10-14T07:05:08.390Z,18.55
2022-10-14T07:07:34.911Z,18.58
2022-10-14T07:10:01.529Z,17.83
2022-10-14T07:12:28.131Z,22.35
2022-10-14T07:14:54.622Z,22.50
2022-10-14T07:17:21.377Z,20.80
2022-10-14T07:19:48.059Z,20.85
2022-10-14T07:22:16.538Z,19.15
2022-10-14T07:24:43.778Z,20.80
2022-10-14T07:27:10.769Z,16.95
2022-10-14T07:29:37.399Z,19.02
2022-10-14T07:32:04.931Z,21.45
2022-10-14T07:34:33.593Z,20.90
2022-10-14T07:37:00.513Z,20.13
2022-10-14T07:39:27.615Z,23.00
2022-10-14T07:41:54.316Z,17.58
2022-10-14T07:44:23.623Z,21.75
2022-10-14T07:46:53.106Z,19.95
2022-10-14T07:49:20.502Z,15.25
2022-10-14T07:51:47.809Z,19.02
2022-10-14T07:54:17.277Z,16.83
2022-10-14T07:56:44.483Z,16.48
2022-10-14T07:59:11.849Z,16.42
2022-10-14T08:01:38.675Z,15.80
2022-10-14T08:04:05.523Z,19.85
2022-10-14T08:06:32.213Z,19.80
2022-10-14T08:08:58.739Z,15.18
2022-10-14T08:11:27.301Z,16.13
2022-10-14T08:13:54.191Z,19.88
2022-10-14T08:16:23.373Z,16.55
2022-10-14T08:18:50.669Z,17.42
2022-10-14T08:21:18.675Z,18.70
2022-10-14T08:23:45.394Z,14.35
2022-10-14T08:26:21.379Z,22.27
2022-10-14T08:28:49.283Z,16.45
2022-10-14T08:31:16.459Z,17.38
2022-10-14T08:33:43.094Z,21.67
2022-10-14T08:36:09.878Z,17.48
2022-10-14T08:38:36.471Z,18.38
2022-10-14T08:41:12.252Z,16.50
2022-10-14T08:43:42.521Z,17.05
2022-10-14T08:46:25.292Z,17.85
2022-10-14T08:49:06.614Z,18.98
2022-10-14T08:54:06.463Z,20.92
2022-10-14T08:56:35.290Z,19.88
2022-10-14T08:59:06.866Z,14.43
2022-10-14T09:01:36.261Z,17.60
2022-10-14T09:04:07.643Z,22.23
2022-10-14T09:06:35.830Z,17.55
2022-10-14T09:09:24.168Z,17.10
2022-10-14T09:11:54.656Z,19.10
2022-10-14T09:14:25.893Z,18.17
2022-10-14T09:17:00.345Z,18.52
2022-10-14T09:19:28.661Z,17.27
2022-10-14T09:21:55.652Z,19.35
2022-10-14T09:24:36.735Z,20.85
2022-10-14T09:27:06.495Z,21.88
2022-10-14T09:29:40.956Z,20.90
2022-10-14T09:32:12.349Z,23.45
2022-10-14T09:34:41.279Z,19.33
2022-10-14T09:37:22.294Z,23.40
2022-10-14T09:42:20.403Z,19.00
2022-10-14T09:45:04.653Z,21.52
2022-10-14T09:47:31.390Z,21.25
2022-10-14T09:50:00.602Z,19.88
2022-10-14T09:52:34.014Z,22.85
2022-10-14T09:55:01.579Z,21.25
2022-10-14T09:57:28.395Z,19.45
2022-10-14T10:00:04.957Z,24.63
2022-10-14T10:02:40.649Z,19.38
2022-10-14T10:05:28.685Z,26.85
2022-10-14T10:08:17.658Z,21.88
2022-10-14T10:11:05.461Z,23.83
2022-10-14T10:13:43.280Z,22.77
2022-10-14T10:16:25.071Z,22.10
2022-10-14T10:18:54.027Z,23.45
2022-10-14T10:21:30.137Z,22.77
2022-10-14T10:23:59.138Z,18.80
2022-10-14T10:26:31.586Z,24.33
2022-10-14T10:29:03.016Z,25.50
2022-10-14T10:31:51.117Z,22.13
2022-10-14T10:34:39.163Z,27.73
2022-10-14T10:37:22.963Z,28.45
2022-10-14T10:40:08.489Z,28.02
2022-10-14T10:42:54.401Z,27.50
2022-10-14T10:45:50.020Z,27.50
2022-10-14T10:48:30.455Z,24.63
2022-10-14T10:51:00.781Z,26.50
2022-10-14T10:53:55.721Z,24.25
2022-10-14T10:56:46.773Z,28.88
2022-10-14T10:59:44.316Z,22.70
2022-10-14T11:02:17.244Z,25.23
2022-10-14T11:04:46.252Z,27.52
2022-10-14T11:07:48.827Z,28.38
2022-10-14T11:10:34.141Z,27.90
2022-10-14T11:13:20.914Z,32.38
2022-10-14T11:15:51.198Z,30.10
2022-10-14T11:18:35.955Z,30.20
2022-10-14T11:21:09.858Z,30.55
2022-10-14T11:23:59.606Z,27.48
2022-10-14T11:26:38.391Z,32.53
2022-10-14T11:29:23.294Z,32.53
2022-10-14T11:32:17.669Z,31.10
2022-10-14T11:34:53.933Z,27.80
2022-10-14T11:37:35.528Z,29.48
2022-10-14T11:40:18.606Z,32.22
2022-10-14T11:43:01.781Z,30.75
2022-10-14T11:45:52.484Z,37.25
2022-10-14T11:49:00.794Z,33.00
2022-10-14T11:51:38.781Z,28.73
2022-10-14T11:54:05.442Z,31.45
2022-10-14T11:56:37.868Z,26.45
2022-10-14T11:59:10.759Z,26.27
2022-10-14T12:01:41.219Z,29.27
2022-10-14T12:04:34.125Z,32.65
2022-10-14T12:07:19.951Z,30.08
2022-10-14T12:10:12.837Z,38.65
2022-10-14T12:12:40.327Z,25.90
2022-10-14T12:15:17.117Z,24.98
2022-10-14T12:17:48.066Z,30.63
2022-10-14T12:20:22.591Z,26.83
2022-10-14T12:22:50.029Z,24.88
2022-10-14T12:25:18.447Z,22.42
2022-10-14T12:27:45.307Z,23.67
2022-10-14T12:30:35.396Z,27.40
2022-10-14T12:33:07.945Z,31.73
2022-10-14T12:35:50.731Z,31.38
2022-10-14T12:38:20.110Z,34.00
2022-10-14T12:40:49.331Z,28.42
2022-10-14T12:43:19.504Z,27.92
2022-10-14T12:45:58.260Z,25.25
2022-10-14T12:48:27.107Z,27.02
2022-10-14T12:51:09.572Z,23.05
2022-10-14T12:53:37.061Z,26.27
2022-10-14T12:56:04.865Z,26.40
2022-10-14T12:58:41.830Z,28.15
2022-10-14T13:01:17.067Z,25.15
2022-10-14T13:03:54.208Z,21.98
2022-10-14T13:06:35.414Z,23.38
2022-10-14T13:09:11.320Z,24.00
2022-10-14T13:11:39.200Z,25.63
2022-10-14T13:14:53.976Z,25.52
2022-10-14T13:17:35.606Z,21.50
2022-10-14T13:20:04.404Z,21.73
2022-10-14T13:22:34.451Z,23.45
2022-10-14T13:25:08.022Z,22.10
2022-10-14T13:27:39.171Z,34.75
2022-10-14T13:30:24.838Z,29.77
2022-10-14T13:32:58.938Z,29.35
2022-10-14T13:35:43.326Z,26.95
2022-10-14T13:38:15.553Z,28.63
2022-10-14T13:40:49.181Z,33.22
2022-10-14T13:43:48.264Z,21.45
2022-10-14T13:46:22.562Z,26.13
2022-10-14T13:48:51.849Z,26.58
2022-10-14T13:51:32.012Z,29.95
2022-10-14T13:54:20.102Z,27.63
2022-10-14T13:57:19.896Z,26.65
2022-10-14T14:00:38.143Z,28.85
2022-10-14T14:02:39.596Z,25.13
2022-10-14T14:05:07.331Z,26.30
2022-10-14T14:08:22.231Z,25.20
2022-10-14T14:10:25.806Z,25.55
2022-10-14T14:12:52.734Z,23.75
2022-10-14T14:15:29.095Z,25.17
2022-10-14T14:17:55.717Z,28.40
2022-10-14T14:20:25.051Z,21.75
2022-10-14T14:22:53.203Z,23.35
2022-10-14T14:25:36.913Z,23.30
2022-10-14T14:28:13.354Z,22.73
2022-10-14T14:30:42.469Z,22.25
2022-10-14T14:33:14.606Z,19.77
2022-10-14T14:35:44.383Z,25.10
2022-10-14T14:38:25.277Z,25.15
2022-10-14T14:41:01.586Z,23.35
2022-10-14T14:43:34.733Z,26.77
2022-10-14T14:46:02.996Z,21.58
2022-10-14T14:48:30.686Z,23.20
2022-10-14T14:50:57.597Z,21.48
2022-10-14T14:53:29.467Z,16.98
2022-10-14T14:55:55.982Z,19.55
2022-10-14T14:58:31.657Z,18.55
2022-10-14T15:00:58.975Z,23.15
2022-10-14T15:03:27.894Z,21.40
2022-10-14T15:06:04.163Z,18.95
2022-10-14T15:08:36.641Z,22.20
2022-10-14T15:11:03.917Z,17.83
2022-10-14T15:13:39.792Z,18.52
2022-10-14T15:16:09.445Z,18.77
2022-10-14T15:18:37.718Z,21.92
2022-10-14T15:21:20.404Z,19.95
2022-10-14T15:23:49.817Z,21.80
2022-10-14T15:26:36.193Z,18.90
2022-10-14T15:29:08.770Z,17.35
2022-10-14T15:31:35.972Z,17.63
2022-10-14T15:34:03.197Z,18.15
2022-10-14T15:36:32.321Z,18.88
2022-10-14T15:39:01.317Z,16.15
2022-10-14T15:41:28.858Z,17.15
2022-10-14T15:43:55.398Z,16.52
2022-10-14T15:46:41.693Z,19.45
2022-10-14T15:49:16.922Z,17.95
2022-10-14T15:51:43.594Z,17.52
2022-10-14T15:54:12.443Z,17.25
2022-10-14T15:56:41.769Z,16.45
2022-10-14T15:59:08.352Z,16.45
2022-10-14T16:01:37.516Z,22.23
2022-10-14T16:04:04.324Z,18.55
2022-10-14T16:06:32.584Z,19.20
2022-10-14T16:08:59.191Z,19.08
2022-10-14T16:11:28.495Z,25.38
2022-10-14T16:13:55.684Z,19.70
2022-10-14T16:16:27.012Z,21.38
2022-10-14T16:18:54.117Z,20.85
2022-10-14T16:21:20.750Z,18.67
2022-10-14T16:23:47.426Z,20.90
2022-10-14T16:26:14.403Z,18.25
2022-10-14T16:28:41.018Z,18.85
2022-10-14T16:31:10.437Z,22.02
2022-10-14T16:33:38.343Z,20.45
2022-10-14T16:36:13.638Z,21.50
2022-10-14T16:38:40.178Z,25.67
2022-10-14T16:41:09.723Z,17.48
2022-10-14T16:43:36.503Z,18.38
2022-10-14T16:46:05.788Z,17.85
2022-10-14T16:48:33.497Z,19.70
2022-10-14T16:51:00.350Z,19.27
2022-10-14T16:53:41.419Z,22.83
2022-10-14T16:58:57.150Z,21.83
2022-10-14T17:01:23.962Z,22.00
2022-10-14T17:03:50.591Z,25.20
2022-10-14T17:06:23.190Z,17.67
2022-10-14T17:08:50.936Z,21.75
2022-10-14T17:11:18.299Z,21.95
2022-10-14T17:13:45.062Z,19.55
2022-10-14T17:16:11.593Z,27.58
2022-10-14T17:18:38.963Z,19.38
2022-10-14T17:21:07.629Z,26.90
2022-10-14T17:23:35.629Z,22.75
2022-10-14T17:26:04.334Z,25.23
2022-10-14T17:28:31.392Z,27.95
2022-10-14T17:30:58.601Z,23.83
2022-10-14T17:33:26.103Z,24.38
2022-10-14T17:36:02.466Z,26.70
2022-10-14T17:38:30.203Z,26.88
2022-10-14T17:41:08.172Z,23.13
2022-10-14T17:43:36.714Z,33.90
2022-10-14T17:46:05.350Z,23.85
2022-10-14T17:48:33.130Z,24.88
2022-10-14T17:50:59.826Z,23.20
2022-10-14T17:53:26.316Z,25.55
2022-10-14T17:55:55.401Z,22.40
2022-10-14T17:58:24.291Z,30.38
2022-10-14T18:00:50.835Z,27.05
2022-10-14T18:03:18.379Z,28.58
2022-10-14T18:05:48.807Z,25.17
2022-10-14T18:08:15.743Z,25.35
2022-10-14T18:10:42.391Z,27.33
2022-10-14T18:13:08.939Z,31.95
2022-10-14T18:15:36.280Z,29.15
2022-10-14T18:18:02.958Z,29.90
2022-10-14T18:20:29.550Z,24.30
2022-10-14T18:22:56.437Z,32.42
2022-10-14T18:25:23.424Z,29.80
2022-10-14T18:27:50.253Z,33.05
2022-10-14T18:30:16.854Z,28.30
2022-10-14T18:32:43.389Z,26.67
2022-10-14T18:35:10.215Z,32.78
2022-10-14T18:37:36.754Z,31.05
2022-10-14T18:40:03.740Z,31.00
2022-10-14T18:42:30.378Z,26.10
2022-10-14T18:44:59.045Z,30.90
2022-10-14T18:47:25.712Z,29.80
2022-10-14T18:49:52.310Z,32.42
2022-10-14T18:52:20.794Z,30.00
2022-10-14T18:54:47.607Z,27.90
2022-10-14T18:57:14.932Z,28.55
2022-10-14T18:59:41.791Z,28.35
2022-10-14T19:02:12.568Z,29.02
2022-10-14T19:04:39.245Z,26.92
2022-10-14T19:07:08.442Z,28.75
2022-10-14T19:09:35.174Z,24.67
2022-10-14T19:12:21.864Z,25.70
2022-10-14T19:14:48.725Z,28.15
2022-10-14T19:17:15.362Z,27.42
2022-10-14T19:19:42.460Z,31.67
2022-10-14T19:22:10.442Z,29.73
2022-10-14T19:24:36.934Z,26.60
2022-10-14T19:27:03.525Z,33.30
2022-10-14T19:29:30.053Z,28.65
2022-10-14T19:31:57.200Z,32.65
2022-10-14T19:34:26.924Z,27.88
2022-10-14T19:36:53.881Z,24.15
2022-10-14T19:39:20.406Z,29.00
2022-10-14T19:41:47.364Z,32.33
2022-10-14T19:44:15.103Z,30.02
2022-10-14T19:46:41.782Z,29.80
2022-10-14T19:49:11.197Z,28.77
2022-10-14T19:51:38.513Z,26.38
2022-10-14T19:54:05.239Z,27.50
2022-10-14T19:56:31.762Z,31.52
2022-10-14T19:58:58.950Z,27.13
2022-10-14T20:01:27.929Z,28.67
2022-10-14T20:03:54.569Z,27.10
2022-10-14T20:06:22.086Z,32.80
2022-10-14T20:08:49.801Z,28.02
2022-10-14T20:11:18.529Z,32.50
2022-10-14T20:13:45.469Z,34.35
2022-10-14T20:16:13.016Z,29.75
2022-10-14T20:18:39.624Z,25.65
2022-10-14T20:21:07.410Z,26.63
2022-10-14T20:23:35.130Z,29.48
2022-10-14T20:26:03.216Z,23.77
2022-10-14T20:28:29.903Z,31.35
2022-10-14T20:30:57.408Z,27.17
2022-10-14T20:33:24.632Z,29.90
2022-10-14T20:36:06.240Z,25.50
2022-10-14T20:38:33.876Z,25.27
2022-10-14T20:41:06.759Z,29.40
2022-10-14T20:43:33.394Z,29.48
2022-10-14T20:46:00.156Z,34.47
2022-10-14T20:48:26.724Z,30.65
2022-10-14T20:50:53.268Z,31.15
2022-10-14T20:53:19.905Z,30.40
2022-10-14T20:55:46.469Z,30.67
2022-10-14T20:58:12.968Z,28.83
2022-10-14T21:00:39.536Z,29.20
2022-10-14T21:03:06.163Z,29.52
2022-10-14T21:05:37.035Z,30.75
2022-10-14T21:08:04.474Z,26.65
2022-10-14T21:10:30.974Z,31.92
2022-10-14T21:12:57.530Z,31.17
2022-10-14T21:15:26.783Z,30.67
2022-10-14T21:17:53.298Z,31.38
2022-10-14T21:20:19.879Z,30.75
2022-10-14T21:22:46.468Z,30.00
2022-10-14T21:25:13.022Z,32.92
2022-10-14T21:27:39.535Z,36.45
2022-10-14T21:30:06.771Z,31.33
2022-10-14T21:32:33.278Z,34.33
2022-10-14T21:34:59.884Z,25.77
2022-10-14T21:37:26.386Z,34.03
2022-10-14T21:39:52.915Z,31.60
2022-10-14T21:42:19.715Z,25.95
2022-10-14T21:44:46.291Z,26.00
2022-10-14T21:47:12.872Z,26.02
2022-10-14T21:49:39.467Z,35.75
2022-10-14T21:52:06.268Z,29.88
2022-10-14T21:54:32.770Z,25.25
2022-10-14T21:56:59.297Z,26.08
2022-10-14T21:59:25.834Z,31.70
2022-10-14T22:01:56.361Z,35.08
2022-10-14T22:04:22.910Z,31.92
2022-10-14T22:06:49.419Z,31.38
2022-10-14T22:09:15.940Z,30.23
2022-10-14T22:11:42.532Z,32.83
2022-10-14T22:14:14.878Z,29.05
2022-10-14T22:16:41.479Z,28.20
2022-10-14T22:19:08.098Z,33.53
2022-10-14T22:21:36.448Z,30.33
2022-10-14T22:24:03.625Z,27.48
2022-10-14T22:26:30.889Z,29.67
2022-10-14T22:28:58.944Z,35.30
2022-10-14T22:31:25.988Z,30.10
2022-10-14T22:33:52.647Z,30.25
2022-10-14T22:36:23.837Z,31.55
2022-10-14T22:38:52.300Z,26.67
2022-10-14T22:41:19.968Z,31.02
2022-10-14T22:43:51.703Z,29.00
2022-10-14T22:46:20.351Z,30.10
2022-10-14T22:48:50.789Z,29.13
2022-10-14T22:51:19.135Z,30.00
2022-10-14T22:53:46.821Z,29.00
2022-10-14T22:56:16.031Z,29.60
2022-10-14T22:58:43.085Z,30.67
2022-10-14T23:01:15.257Z,27.98
2022-10-14T23:03:42.527Z,27.02
2022-10-14T23:06:11.655Z,30.02
2022-10-14T23:08:38.589Z,30.00
2022-10-14T23:11:06.250Z,36.47
2022-10-14T23:13:33.399Z,33.97
2022-10-14T23:16:05.872Z,32.33
2022-10-14T23:18:35.073Z,32.67
2022-10-14T23:21:13.546Z,27.33
2022-10-14T23:23:40.181Z,28.92
2022-10-14T23:26:09.607Z,32.70
2022-10-14T23:28:36.494Z,35.63
2022-10-14T23:31:15.587Z,33.28
2022-10-14T23:33:42.379Z,30.02
2022-10-14T23:36:11.598Z,29.88
2022-10-14T23:38:39.292Z,25.13
2022-10-14T23:41:06.772Z,35.22
2022-10-14T23:43:33.480Z,39.92
2022-10-14T23:46:00.122Z,30.25
2022-10-14T23:48:27.050Z,33.70
2022-10-14T23:50:53.598Z,30.92
2022-10-14T23:53:20.412Z,32.53
2022-10-14T23:55:47.317Z,36.75
2022-10-14T23:58:13.866Z,29.67
